Thursday, November 15, 2018, 8:13 PM EST
Back to Local

KGNR, Greenville

Location: Greenville, ME, United States Lat: 45.467
Local Time: 8:13 PM EST ( 1:13 GMT) Lon: -69.583
Time Zone: US/Eastern Elev: 1400 ft

Show me the last for .
Show Coded

Time T Td Feel RH Dir Speed Gust Alt SLP Vis Weather Sky Remarks
2018-11-15 18:56 17 7 9 63 120° 6 - 30.32 30.41 0 6-hr Min Temp (7pm): 15.1°F
6-hr Max Temp (7pm): 19.9°F
2018-11-15 17:56 17 7 10 63 100° 5 - 30.33 30.42 0 None
2018-11-15 16:56 15 7 9 69 110° 3 - 30.35 30.45 0 None
2018-11-15 15:56 18 8 - 64 - Calm - 30.38 30.47 0 None
2018-11-15 14:56 19 7 - 58 - Calm - 30.37 30.47 0 None
2018-11-15 13:56 20 5 12 51 350° 6 - 30.38 30.48 0 None
2018-11-15 12:56 19 4 12 50 Variable 5 - 30.40 30.49 0 6-hr Min Temp (1pm): 9.0°F
6-hr Max Temp (1pm): 19.0°F
2018-11-15 11:56 18 5 7 56 330° 9 - 30.43 30.53 0 None
2018-11-15 10:56 16 5 6 61 320° 7 - 30.45 30.55 0 None
2018-11-15 09:56 14 4 2 63 320° 9 - 30.46 30.56 0 None
2018-11-15 08:56 11 3 -4 69 330° 13 - 30.44 30.54 0 None
2018-11-15 07:56 10 1 -5 66 330° 12 - 30.45 30.55 0 None
2018-11-15 06:56 9 3 1 76 360° 5 - 30.44 30.55 0 6-hr Min Temp (7am): 6.1°F
6-hr Max Temp (7am): 9.0°F
2018-11-15 05:56 7 0 -3 72 20° 6 - 30.43 30.53 0 None
2018-11-15 04:56 7 1 - 75 - Calm - 30.44 30.54 0 None
2018-11-15 03:56 8 0 -12 68 310° 12 21 30.45 30.55 0 None
2018-11-15 02:56 8 0 -9 68 310° 15 - 30.43 30.54 0 None
2018-11-15 01:56 8 0 -12 68 300° 14 22 30.40 30.51 0 Peak wind: 29 mph (26 kts) from 290° at 22 min
2018-11-15 00:56 9 1 -14 69 290° 15 32 30.38 30.48 0 Peak wind: 32 mph (28 kts) from 290° at 54 min
6-hr Min Temp (1am): 9.0°F
6-hr Max Temp (1am): 10.9°F
2018-11-14 23:56 9 1 -13 69 290° 14 28 30.36 30.47 0 Peak wind: 29 mph (26 kts) from 310° at 23 min
24-hr Min Temp (12am): 7.0°F
24-hr Max Temp (12am): 25.0°F
2018-11-14 22:56 10 1 -13 66 310° 22 35 30.32 30.42 0 Peak wind: 34 mph (30 kts) from 300° at 54 min
2018-11-14 21:56 10 2 -12 69 310° 18 29 30.30 30.40 0 Peak wind: 34 mph (30 kts) from 320° at 23 min
2018-11-14 20:56 10 2 -13 69 310° 18 31 30.30 30.40 0 Peak wind: 31 mph (27 kts) from 330° at 34 min

Support USWX by starting your Amazon purchase here.